Aeroporto :
LOGIN :

Iscrizione | Disclaimer

   EN    FR    IT 

 










Sommario :    VFR   VFR Marginale   IFR   IFR Intensivo   IFR Molto Intensivo
Visibilità : 
Base nubi : 
>= 8 km
>= 3000ft
5 / 8 km
1000 / 3000 ft
1500m / 5 km
500 / 1000 ft
800 / 1500m
200 / 500 ft
< 800m
< 200 ft
Simboli :   Temporali  Nebbia  Neve Forte  Precipitazioni Forti  Vento > 20 kt
SIGMETs :   Varie  Temporali  Ghiacco  Turbolenza  Onda orograficha  Ceneri Vulcaniche







- Altitudine del aeroporto : 335 ft
- Codice IATA : BEG


LYBE - Belgrade Nikola Tesla

ULTIMO METAR :
  • 230130Z 21006KT CAVOK 21/19 Q1021 NOSIG

METARs OBSOLETI :
  • 230100Z 20004KT CAVOK 21/19 Q1021 NOSIG
  • 230030Z 21006KT CAVOK 22/20 Q1021 NOSIG
  • 230000Z 21005KT CAVOK 22/20 Q1021 NOSIG
  • 222330Z 19005KT CAVOK 22/20 Q1021 NOSIG
  • 222300Z 19004KT 160V220 CAVOK 23/20 Q1022 NOSIG

TAF TAF LYBE
Valido dal 23 a 00 ore il 24 a 00 ore UTC


222300Z 2300/2324 15006KT CAVOK TX34/2314Z TN18/2304Z
Nessun NOTAM noto per questo aeroporto.



MetMap, La meteo Aeronautica in un colpo d'occhio ! - Copyright ORBIFLY Dicembre 2007 - Disclaimer

ORBIFLY MET'MAP TEAM :

Programmazione e sviluppo : Alexandra Zaïnal
Concezione e sviluppo : Baudouin d'Aumeries
Co-Programmazione e sviluppo : Marc-Olivier Méhu
Supporto tecnico e logistico : Manuel Goepfert
Aiuto per la traduzione : Arnaldo La Scala

Contatto : metmap@orbifly.com




FONTI E CREDITI :

   NOAA